createdAt,value
2018-12-29T00:01:48.116Z,23.02
2018-12-29T00:04:36.930Z,21.80
2018-12-29T00:07:25.768Z,23.30
2018-12-29T00:10:14.567Z,23.00
2018-12-29T00:13:03.393Z,24.10
2018-12-29T00:15:52.181Z,22.23
2018-12-29T00:18:41.005Z,26.17
2018-12-29T00:21:29.827Z,27.50
2018-12-29T00:24:18.620Z,28.27
2018-12-29T00:26:59.931Z,23.10
2018-12-29T00:29:48.725Z,26.57
2018-12-29T00:32:37.812Z,23.80
2018-12-29T00:35:26.612Z,24.37
2018-12-29T00:38:15.437Z,24.60
2018-12-29T00:41:04.230Z,21.75
2018-12-29T00:43:53.143Z,21.43
2018-12-29T00:46:41.924Z,24.57
2018-12-29T00:49:30.769Z,24.40
2018-12-29T00:52:19.565Z,26.20
2018-12-29T00:55:08.386Z,29.67
2018-12-29T00:57:57.179Z,22.70
2018-12-29T01:00:45.995Z,26.30
2018-12-29T01:03:34.809Z,28.60
2018-12-29T01:06:23.606Z,26.10
2018-12-29T01:09:12.443Z,23.17
2018-12-29T01:12:01.234Z,27.90
2018-12-29T01:14:50.055Z,25.87
2018-12-29T01:17:38.867Z,27.87
2018-12-29T01:20:27.688Z,22.43
2018-12-29T01:23:16.483Z,29.00
2018-12-29T01:25:58.159Z,31.20
2018-12-29T01:28:46.960Z,27.70
2018-12-29T01:31:35.770Z,24.50
2018-12-29T01:34:24.569Z,29.63
2018-12-29T01:37:13.387Z,24.10
2018-12-29T01:40:02.187Z,31.47
2018-12-29T01:42:51.014Z,27.77
2018-12-29T01:45:39.812Z,30.17
2018-12-29T01:48:28.654Z,31.60
2018-12-29T01:51:17.469Z,27.35
2018-12-29T01:54:06.270Z,29.30
2018-12-29T01:56:55.073Z,27.67
2018-12-29T01:59:43.890Z,24.70
2018-12-29T02:02:32.692Z,24.60
2018-12-29T02:05:21.518Z,30.43
2018-12-29T02:08:10.301Z,28.97
2018-12-29T02:10:59.148Z,23.50
2018-12-29T02:13:47.963Z,26.50
2018-12-29T02:16:36.777Z,32.70
2018-12-29T02:19:06.235Z,27.10
2018-12-29T02:21:55.063Z,36.27
2018-12-29T02:24:36.581Z,30.47
2018-12-29T02:27:25.396Z,27.20
2018-12-29T02:30:14.192Z,26.80
2018-12-29T02:33:03.009Z,30.80
2018-12-29T02:36:10.826Z,28.50
2018-12-29T02:38:59.639Z,25.77
2018-12-29T02:41:48.505Z,30.63
2018-12-29T02:44:37.310Z,30.60
2018-12-29T02:47:26.139Z,30.97
2018-12-29T02:53:09.536Z,36.20
2018-12-29T02:55:58.358Z,26.47
2018-12-29T02:58:47.152Z,33.33
2018-12-29T03:01:35.976Z,33.70
2018-12-29T03:04:24.784Z,34.40
2018-12-29T03:07:13.594Z,31.10
2018-12-29T03:10:02.421Z,31.20
2018-12-29T03:12:51.206Z,32.17
2018-12-29T03:15:41.691Z,29.17
2018-12-29T03:18:30.545Z,28.20
2018-12-29T03:21:19.639Z,29.97
2018-12-29T03:24:08.451Z,32.20
2018-12-29T03:26:57.343Z,38.67
2018-12-29T03:29:46.129Z,29.43
2018-12-29T03:32:34.960Z,28.62
2018-12-29T03:35:23.760Z,24.57
2018-12-29T03:38:12.572Z,26.90
2018-12-29T03:41:01.459Z,31.80
2018-12-29T03:43:50.269Z,28.20
2018-12-29T03:46:39.095Z,30.15
2018-12-29T03:49:27.902Z,30.47
2018-12-29T03:52:16.722Z,31.60
2018-12-29T03:55:05.682Z,29.67
2018-12-29T03:57:54.488Z,31.27
2018-12-29T04:00:43.299Z,29.35
2018-12-29T04:03:32.120Z,34.37
2018-12-29T04:06:20.918Z,30.67
2018-12-29T04:09:48.422Z,26.40
2018-12-29T04:12:37.281Z,30.50
2018-12-29T04:15:26.108Z,33.70
2018-12-29T04:18:14.900Z,29.07
2018-12-29T04:21:03.733Z,33.43
2018-12-29T04:23:52.595Z,34.00
2018-12-29T04:26:34.034Z,35.10
2018-12-29T04:29:03.505Z,38.57
2018-12-29T04:31:52.296Z,32.07
2018-12-29T04:34:41.114Z,35.70
2018-12-29T04:37:29.915Z,31.80
2018-12-29T04:40:18.740Z,31.03
2018-12-29T04:43:07.543Z,32.70
2018-12-29T04:45:56.683Z,32.35
2018-12-29T04:48:45.483Z,24.50
2018-12-29T04:51:34.332Z,30.57
2018-12-29T04:54:23.126Z,39.50
2018-12-29T04:57:11.955Z,32.20
2018-12-29T05:00:00.771Z,31.17
2018-12-29T05:02:49.560Z,34.27
2018-12-29T05:05:38.388Z,29.25
2018-12-29T05:08:27.261Z,28.57
2018-12-29T05:11:16.091Z,31.53
2018-12-29T05:17:12.723Z,34.13
2018-12-29T05:20:01.512Z,33.87
2018-12-29T05:22:43.478Z,28.90
2018-12-29T05:25:32.276Z,28.13
2018-12-29T05:28:21.095Z,32.50
2018-12-29T05:31:09.958Z,28.70
2018-12-29T05:33:58.787Z,33.53
2018-12-29T05:36:47.579Z,33.70
2018-12-29T05:39:36.393Z,33.80
2018-12-29T05:42:25.192Z,28.30
2018-12-29T05:45:14.289Z,30.60
2018-12-29T05:48:03.182Z,28.60
2018-12-29T05:50:51.978Z,30.70
2018-12-29T05:53:40.803Z,26.50
2018-12-29T05:56:29.608Z,27.70
2018-12-29T05:59:18.419Z,34.07
2018-12-29T06:02:07.215Z,29.20
2018-12-29T06:04:56.034Z,33.50
2018-12-29T06:07:44.906Z,27.83
2018-12-29T06:10:33.693Z,34.77
2018-12-29T06:13:22.490Z,40.17
2018-12-29T06:16:11.305Z,28.37
2018-12-29T06:19:00.151Z,31.33
2018-12-29T06:21:48.950Z,28.73
2018-12-29T06:24:30.667Z,34.40
2018-12-29T06:27:19.467Z,33.80
2018-12-29T06:30:08.356Z,28.80
2018-12-29T06:32:57.181Z,29.50
2018-12-29T06:35:46.015Z,31.47
2018-12-29T06:38:34.810Z,35.20
2018-12-29T06:41:23.900Z,35.90
2018-12-29T06:44:12.693Z,41.97
2018-12-29T06:47:01.524Z,36.13
2018-12-29T06:49:50.310Z,33.67
2018-12-29T06:52:39.142Z,37.77
2018-12-29T06:55:27.954Z,42.57
2018-12-29T06:58:16.770Z,36.70
2018-12-29T07:01:05.562Z,43.77
2018-12-29T07:03:54.454Z,30.23
2018-12-29T07:06:43.260Z,30.07
2018-12-29T07:09:32.087Z,36.00
2018-12-29T07:12:20.872Z,34.90
2018-12-29T07:15:09.721Z,31.87
2018-12-29T07:17:58.507Z,30.60
2018-12-29T07:23:40.150Z,39.20
2018-12-29T07:26:28.956Z,35.43
2018-12-29T07:29:17.747Z,34.30
2018-12-29T07:32:06.574Z,32.57
2018-12-29T07:38:10.224Z,32.50
2018-12-29T07:40:59.043Z,25.30
2018-12-29T07:43:47.864Z,28.77
2018-12-29T07:46:36.666Z,32.80
2018-12-29T07:49:25.475Z,31.50
2018-12-29T07:52:14.280Z,32.67
2018-12-29T07:55:03.102Z,34.40
2018-12-29T07:57:51.897Z,29.93
2018-12-29T08:00:40.729Z,41.30
2018-12-29T08:03:29.518Z,35.10
2018-12-29T08:06:18.346Z,28.63
2018-12-29T08:09:07.990Z,36.77
2018-12-29T08:11:56.811Z,27.87
2018-12-29T08:14:45.638Z,29.50
2018-12-29T08:17:34.423Z,39.00
2018-12-29T08:20:23.255Z,39.00
2018-12-29T08:23:12.054Z,31.53
2018-12-29T08:25:53.629Z,31.70
2018-12-29T08:28:42.432Z,28.43
2018-12-29T08:31:31.275Z,32.63
2018-12-29T08:34:20.040Z,24.20
2018-12-29T08:37:08.852Z,27.30
2018-12-29T08:39:57.658Z,25.60
2018-12-29T08:42:46.476Z,27.57
2018-12-29T08:45:35.280Z,34.30
2018-12-29T08:48:24.092Z,28.80
2018-12-29T08:51:12.896Z,31.50
2018-12-29T08:54:01.764Z,35.30
2018-12-29T08:56:50.566Z,29.10
2018-12-29T08:59:39.379Z,28.90
2018-12-29T09:02:28.194Z,29.67
2018-12-29T09:05:17.011Z,28.30
2018-12-29T09:08:05.812Z,36.80
2018-12-29T09:10:54.645Z,34.57
2018-12-29T09:13:43.462Z,33.70
2018-12-29T09:16:32.278Z,33.70
2018-12-29T09:19:27.193Z,31.80
2018-12-29T09:22:11.627Z,30.10
2018-12-29T09:24:53.161Z,26.97
2018-12-29T09:27:41.966Z,35.30
2018-12-29T09:30:30.798Z,33.80
2018-12-29T09:33:19.582Z,30.03
2018-12-29T09:36:08.393Z,28.27
2018-12-29T09:38:57.216Z,37.27
2018-12-29T09:41:46.008Z,27.63
2018-12-29T09:44:34.835Z,30.77
2018-12-29T09:47:23.658Z,27.23
2018-12-29T09:50:12.461Z,30.10
2018-12-29T09:53:01.261Z,32.07
2018-12-29T09:55:50.064Z,30.40
2018-12-29T09:58:38.869Z,33.67
2018-12-29T10:01:27.677Z,33.07
2018-12-29T10:04:16.471Z,34.37
2018-12-29T10:07:05.317Z,27.33
2018-12-29T10:09:54.149Z,29.67
2018-12-29T10:12:42.963Z,26.40
2018-12-29T10:19:00.358Z,26.63
2018-12-29T10:21:49.185Z,27.40
2018-12-29T10:24:30.784Z,25.17
2018-12-29T10:27:19.611Z,26.50
2018-12-29T10:30:08.399Z,25.10
2018-12-29T10:32:57.261Z,26.40
2018-12-29T10:35:46.058Z,27.30
2018-12-29T10:38:34.911Z,23.07
2018-12-29T10:41:23.748Z,26.60
2018-12-29T10:44:12.604Z,26.87
2018-12-29T10:47:01.753Z,24.90
2018-12-29T10:49:50.562Z,24.87
2018-12-29T10:52:39.453Z,24.70
2018-12-29T10:55:28.264Z,27.50
2018-12-29T10:58:17.064Z,27.00
2018-12-29T11:01:05.952Z,32.20
2018-12-29T11:03:54.753Z,28.40
2018-12-29T11:06:43.576Z,22.47
2018-12-29T11:09:32.368Z,27.90
2018-12-29T11:12:21.212Z,26.27
2018-12-29T11:15:29.040Z,26.00
2018-12-29T11:18:17.835Z,27.97
2018-12-29T11:21:06.648Z,28.30
2018-12-29T11:23:55.509Z,23.80
2018-12-29T11:26:35.336Z,22.00
2018-12-29T11:29:24.138Z,21.60
2018-12-29T11:32:12.994Z,24.67
2018-12-29T11:35:02.112Z,28.07
2018-12-29T11:37:50.918Z,28.47
2018-12-29T11:40:39.717Z,28.30
2018-12-29T11:43:28.533Z,23.33
2018-12-29T11:46:17.350Z,28.00
2018-12-29T11:49:06.231Z,26.80
2018-12-29T11:51:55.033Z,30.05
2018-12-29T11:54:43.848Z,26.90
2018-12-29T11:57:32.661Z,29.00
2018-12-29T12:00:21.482Z,27.80
2018-12-29T12:06:04.261Z,26.47
2018-12-29T12:08:53.040Z,23.93
2018-12-29T12:11:41.840Z,29.70
2018-12-29T12:14:30.655Z,30.93
2018-12-29T12:17:19.447Z,24.63
2018-12-29T12:20:08.264Z,27.17
2018-12-29T12:22:57.057Z,26.70
2018-12-29T12:25:45.964Z,31.67
2018-12-29T12:28:27.401Z,25.00
2018-12-29T12:31:16.210Z,26.55
2018-12-29T12:34:05.002Z,20.37
2018-12-29T12:36:55.539Z,28.50
2018-12-29T12:39:44.333Z,23.70
2018-12-29T12:42:33.164Z,36.67
2018-12-29T12:45:21.960Z,20.10
2018-12-29T12:48:10.772Z,21.70
2018-12-29T12:50:59.565Z,23.43
2018-12-29T12:53:48.384Z,26.73
2018-12-29T12:56:37.205Z,24.12
2018-12-29T12:59:26.176Z,21.43
2018-12-29T13:02:14.991Z,22.70
2018-12-29T13:05:03.878Z,23.43
2018-12-29T13:07:52.698Z,20.83
2018-12-29T13:10:43.240Z,23.27
2018-12-29T13:13:32.045Z,21.80
2018-12-29T13:16:20.881Z,21.37
2018-12-29T13:19:09.652Z,20.23
2018-12-29T13:21:58.472Z,19.17
2018-12-29T13:24:39.685Z,22.37
2018-12-29T13:27:28.508Z,20.97
2018-12-29T13:30:17.645Z,24.37
2018-12-29T13:33:06.476Z,20.60
2018-12-29T13:35:55.270Z,24.07
2018-12-29T13:38:44.098Z,20.17
2018-12-29T13:41:32.889Z,25.07
2018-12-29T13:44:21.707Z,24.83
2018-12-29T13:47:10.523Z,22.17
2018-12-29T13:49:59.354Z,24.60
2018-12-29T13:52:48.144Z,24.90
2018-12-29T13:55:36.963Z,22.67
2018-12-29T13:58:25.757Z,29.83
2018-12-29T14:01:14.659Z,21.42
2018-12-29T14:04:03.450Z,25.90
2018-12-29T14:06:53.993Z,26.63
2018-12-29T14:09:42.806Z,26.30
2018-12-29T14:12:33.315Z,22.20
2018-12-29T14:15:22.152Z,24.47
2018-12-29T14:18:11.003Z,22.60
2018-12-29T14:20:59.830Z,24.37
2018-12-29T14:23:48.624Z,26.17
2018-12-29T14:26:37.456Z,20.80
2018-12-29T14:29:26.261Z,19.27
2018-12-29T14:32:15.060Z,18.07
2018-12-29T14:35:03.940Z,15.73
2018-12-29T14:37:52.731Z,18.13
2018-12-29T14:40:41.561Z,18.13
2018-12-29T14:43:30.352Z,18.37
2018-12-29T14:46:19.189Z,22.02
2018-12-29T14:49:07.983Z,17.30
2018-12-29T14:51:56.803Z,21.23
2018-12-29T14:54:45.600Z,21.97
2018-12-29T14:57:34.421Z,21.97
2018-12-29T15:00:04.346Z,27.57
2018-12-29T15:02:53.162Z,22.60
2018-12-29T15:08:49.715Z,20.60
2018-12-29T15:11:38.574Z,19.20
2018-12-29T15:17:22.149Z,21.83
2018-12-29T15:20:10.965Z,21.70
2018-12-29T15:22:52.159Z,23.30
2018-12-29T15:25:40.974Z,21.20
2018-12-29T15:28:48.890Z,25.43
2018-12-29T15:31:37.730Z,19.37
2018-12-29T15:34:26.536Z,23.77
2018-12-29T15:37:15.346Z,16.20
2018-12-29T15:43:32.799Z,18.50
2018-12-29T15:46:21.615Z,21.87
2018-12-29T15:49:10.441Z,17.40
2018-12-29T15:51:59.256Z,17.62
2018-12-29T15:54:48.134Z,20.07
2018-12-29T15:57:36.936Z,18.10
2018-12-29T16:00:25.851Z,15.80
2018-12-29T16:03:14.655Z,17.77
2018-12-29T16:06:03.463Z,20.30
2018-12-29T16:08:52.260Z,18.03
2018-12-29T16:11:42.801Z,17.80
2018-12-29T16:14:50.639Z,24.13
2018-12-29T16:17:39.420Z,22.53
2018-12-29T16:20:28.239Z,23.17
2018-12-29T16:23:18.766Z,25.80
2018-12-29T16:26:02.398Z,21.42
2018-12-29T16:28:51.188Z,23.83
2018-12-29T16:31:40.006Z,28.20
2018-12-29T16:34:30.536Z,27.70
2018-12-29T16:37:19.416Z,23.57
2018-12-29T16:40:08.233Z,21.40
2018-12-29T16:42:57.035Z,26.30
2018-12-29T16:45:48.363Z,25.37
2018-12-29T16:48:38.118Z,21.77
2018-12-29T16:51:26.929Z,24.80
2018-12-29T16:54:15.723Z,24.03
2018-12-29T16:57:23.628Z,24.80
2018-12-29T17:00:12.427Z,28.70
2018-12-29T17:03:01.237Z,23.60
2018-12-29T17:08:57.793Z,25.63
2018-12-29T17:11:52.327Z,23.30
2018-12-29T17:14:37.231Z,27.30
2018-12-29T17:17:26.061Z,24.57
2018-12-29T17:20:14.866Z,22.80
2018-12-29T17:22:56.495Z,27.07
2018-12-29T17:25:45.302Z,25.08
2018-12-29T17:28:34.129Z,20.87
2018-12-29T17:31:22.948Z,21.13
2018-12-29T17:34:11.759Z,22.50
2018-12-29T17:37:00.552Z,21.23
2018-12-29T17:39:49.368Z,18.10
2018-12-29T17:42:38.202Z,21.80
2018-12-29T17:45:28.710Z,18.97
2018-12-29T17:48:19.235Z,20.80
2018-12-29T17:51:08.049Z,15.87
2018-12-29T17:53:58.572Z,16.53
2018-12-29T17:56:49.106Z,18.03
2018-12-29T17:59:37.908Z,18.30
2018-12-29T18:05:21.603Z,16.65
2018-12-29T18:08:10.372Z,17.80
2018-12-29T18:10:59.251Z,19.23
2018-12-29T18:16:57.728Z,17.33
2018-12-29T18:19:46.652Z,15.40
2018-12-29T18:25:22.719Z,12.90
2018-12-29T18:28:11.557Z,12.73
2018-12-29T18:31:00.446Z,10.07
2018-12-29T18:33:49.315Z,14.40
2018-12-29T18:36:38.551Z,11.77
2018-12-29T18:39:27.436Z,10.33
2018-12-29T18:42:16.422Z,9.07
2018-12-29T18:48:20.118Z,7.97
2018-12-29T18:51:10.692Z,7.97
2018-12-29T18:54:01.596Z,8.47
2018-12-29T18:56:52.168Z,6.63
2018-12-29T18:59:41.127Z,9.77
2018-12-29T19:02:30.009Z,13.68
2018-12-29T19:05:18.926Z,7.10
2018-12-29T19:08:07.800Z,5.40
2018-12-29T19:10:56.667Z,6.00
2018-12-29T19:13:47.293Z,4.87
2018-12-29T19:16:37.828Z,5.95
2018-12-29T19:19:26.723Z,8.40
2018-12-29T19:22:15.521Z,9.40
2018-12-29T19:24:57.396Z,7.33
2018-12-29T19:27:46.191Z,6.73
2018-12-29T19:30:35.010Z,7.27
2018-12-29T19:33:25.543Z,6.60
2018-12-29T19:36:16.062Z,6.45
2018-12-29T19:39:26.541Z,6.67
2018-12-29T19:42:15.342Z,7.20
2018-12-29T19:45:04.230Z,8.10
2018-12-29T19:47:53.018Z,6.40
2018-12-29T19:50:43.578Z,7.17
2018-12-29T19:53:34.122Z,10.60
2018-12-29T19:56:22.935Z,6.03
2018-12-29T19:59:11.724Z,7.73
2018-12-29T20:02:00.657Z,5.60
2018-12-29T20:04:49.445Z,5.70
2018-12-29T20:07:40.049Z,5.20
2018-12-29T20:10:28.943Z,5.47
2018-12-29T20:13:17.881Z,4.47
2018-12-29T20:16:06.680Z,5.10
2018-12-29T20:18:55.502Z,6.60
2018-12-29T20:21:44.321Z,6.37
2018-12-29T20:24:25.746Z,13.23
2018-12-29T20:27:14.712Z,7.40
2018-12-29T20:30:22.664Z,5.70
2018-12-29T20:33:30.683Z,4.73
2018-12-29T20:36:19.475Z,4.57
2018-12-29T20:39:08.314Z,5.87
2018-12-29T20:41:57.176Z,5.77
2018-12-29T20:44:46.004Z,7.77
2018-12-29T20:47:41.601Z,7.00
2018-12-29T20:50:49.643Z,5.83
2018-12-29T20:53:38.611Z,6.23
2018-12-29T20:59:24.190Z,6.07
2018-12-29T21:02:12.993Z,6.50
2018-12-29T21:05:01.883Z,6.37
2018-12-29T21:07:51.193Z,5.90
2018-12-29T21:10:40.427Z,4.10
2018-12-29T21:13:30.899Z,4.70
2018-12-29T21:16:19.731Z,7.30
2018-12-29T21:19:29.476Z,6.07
2018-12-29T21:22:19.064Z,11.47
2018-12-29T21:25:08.019Z,9.50
2018-12-29T21:27:56.865Z,14.87
2018-12-29T21:31:05.260Z,9.30
2018-12-29T21:33:56.171Z,9.47
2018-12-29T21:37:05.965Z,6.60
2018-12-29T21:39:54.869Z,10.83
2018-12-29T21:42:44.138Z,6.53
2018-12-29T21:45:33.082Z,8.93
2018-12-29T21:48:21.952Z,9.03
2018-12-29T21:51:10.780Z,7.25
2018-12-29T21:53:59.617Z,8.77
2018-12-29T21:56:48.523Z,12.07
2018-12-29T21:59:37.422Z,7.40
2018-12-29T22:02:26.214Z,6.50
2018-12-29T22:05:15.024Z,8.33
2018-12-29T22:08:05.545Z,7.47
2018-12-29T22:10:54.395Z,8.10
2018-12-29T22:13:44.966Z,7.50
2018-12-29T22:16:33.852Z,7.30
2018-12-29T22:19:24.369Z,11.80
2018-12-29T22:22:13.184Z,10.70
2018-12-29T22:24:56.949Z,10.50
2018-12-29T22:27:45.765Z,7.47
2018-12-29T22:33:42.385Z,9.80
2018-12-29T22:36:31.188Z,9.70
2018-12-29T22:39:20.008Z,7.97
2018-12-29T22:42:08.816Z,9.40
2018-12-29T22:44:57.606Z,9.37
2018-12-29T22:47:48.152Z,9.10
2018-12-29T22:50:41.040Z,9.53
2018-12-29T22:53:27.560Z,6.17
2018-12-29T22:59:24.119Z,7.60
2018-12-29T23:02:12.908Z,6.30
2018-12-29T23:05:01.719Z,6.73
2018-12-29T23:10:58.266Z,6.23
2018-12-29T23:13:47.105Z,5.40
2018-12-29T23:16:35.912Z,5.00
2018-12-29T23:19:24.718Z,5.93
2018-12-29T23:25:08.442Z,6.30
2018-12-29T23:27:51.793Z,5.63
2018-12-29T23:30:40.595Z,4.50
2018-12-29T23:33:29.410Z,4.93
2018-12-29T23:36:18.207Z,6.33
2018-12-29T23:39:07.022Z,4.60
2018-12-29T23:41:55.816Z,7.33
2018-12-29T23:44:44.626Z,6.83
2018-12-29T23:47:33.427Z,6.03
2018-12-29T23:50:22.291Z,7.13
2018-12-29T23:53:12.806Z,8.00
2018-12-29T23:56:03.290Z,3.87
2018-12-29T23:58:52.101Z,6.43
